Time;durP1;ratioP1;P1;durP2;ratioP2;P2;SDS_P1;SDS_P2;PMS_P1;PMS_P2;Temp;Humidity;BMP_temperature;BMP_pressure;BME280_temperature;BME280_humidity;BME280_pressure;Samples;Min_cycle;Max_cycle;Signal;HPM_P1;HPM_P2
2020/01/06 16:27:45;;;;;;;9.8;8.8;;;;;;;3.18;86.46289;968.7789;;;;
2020/01/06 16:30:10;;;;;;;12.3;10.8;;;;;;;3.14;86.50977;968.77;;;;
2020/01/06 16:32:35;;;;;;;13;11.5;;;;;;;3.1;86.49121;968.7615;;;;
2020/01/06 16:35:51;;;;;;;14.2;12.2;;;;;;;2.96;86.73145;968.783;;;;
2020/01/06 16:38:16;;;;;;;13.7;11.9;;;;;;;2.89;87.5332;968.7428;;;;
2020/01/06 16:40:41;;;;;;;13.6;12;;;;;;;2.85;87.5459;968.7411;;;;
2020/01/06 16:43:06;;;;;;;13.6;12;;;;;;;2.77;87.78027;968.665;;;;
2020/01/06 16:45:31;;;;;;;14.3;12.7;;;;;;;2.67;88.40234;968.6476;;;;
2020/01/06 16:47:57;;;;;;;16.9;13.2;;;;;;;2.73;87.74805;968.629;;;;
2020/01/06 16:50:22;;;;;;;16.4;13.8;;;;;;;2.68;88.28125;968.6105;;;;
2020/01/06 16:52:47;;;;;;;16.6;14.5;;;;;;;2.85;87.24316;968.5481;;;;
2020/01/06 16:55:12;;;;;;;18.6;15.8;;;;;;;2.78;87.07031;968.5759;;;;
2020/01/06 16:57:37;;;;;;;21.2;15.8;;;;;;;2.75;87.1875;968.5583;;;;
2020/01/06 17:00:02;;;;;;;16.8;15;;;;;;;2.49;89.09863;968.5441;;;;
2020/01/06 17:02:27;;;;;;;17;14.9;;;;;;;2.29;89.63281;968.5289;;;;
2020/01/06 17:04:52;;;;;;;17.4;15.6;;;;;;;2.41;89.22852;968.5253;;;;
2020/01/06 17:07:17;;;;;;;18;15.9;;;;;;;2.45;89.05566;968.4914;;;;
2020/01/06 17:09:42;;;;;;;18.3;16.4;;;;;;;2.42;89.13086;968.5203;;;;
2020/01/06 17:12:08;;;;;;;18.7;16.8;;;;;;;2.29;89.70313;968.5259;;;;
2020/01/06 17:14:36;;;;;;;18.7;16.7;;;;;;;2.36;89.4209;968.4977;;;;
2020/01/06 17:17:01;;;;;;;19.5;17.4;;;;;;;2.29;89.4541;968.5436;;;;
2020/01/06 17:19:26;;;;;;;20.5;18.1;;;;;;;1.96;90.84863;968.517;;;;
2020/01/06 17:21:51;;;;;;;19.9;17.8;;;;;;;1.9;91.07422;968.5446;;;;
2020/01/06 17:24:16;;;;;;;19.8;17.7;;;;;;;1.81;90.91797;968.5365;;;;
2020/01/06 17:26:42;;;;;;;21.1;18.9;;;;;;;1.56;92.00195;968.5239;;;;
2020/01/06 17:29:07;;;;;;;21.5;19.3;;;;;;;1.43;93.1582;968.4691;;;;
2020/01/06 17:31:32;;;;;;;21.8;19.6;;;;;;;1.42;93.06543;968.4437;;;;
2020/01/06 17:33:57;;;;;;;21.6;19.3;;;;;;;1.39;93.21582;968.3879;;;;
2020/01/06 17:36:22;;;;;;;21;18.9;;;;;;;1.44;92.6084;968.4154;;;;
2020/01/06 17:38:47;;;;;;;22;19.7;;;;;;;1.42;92.66016;968.4045;;;;
2020/01/06 17:41:12;;;;;;;23.4;21;;;;;;;1.31;93.08496;968.4045;;;;
2020/01/06 17:43:46;;;;;;;23.5;21.1;;;;;;;1.4;92.46289;968.3954;;;;
2020/01/06 17:50:53;;;;;;;23.3;21;;;;;;;1.22;93.20313;968.3571;;;;
2020/01/06 17:53:18;;;;;;;25.5;22.9;;;;;;;1.09;93.17285;968.4283;;;;
2020/01/06 17:55:43;;;;;;;25.5;23;;;;;;;1.07;93.30469;968.4108;;;;
2020/01/06 17:58:08;;;;;;;25.8;23.2;;;;;;;0.92;94.3623;968.4322;;;;
2020/01/06 18:00:34;;;;;;;25.4;22.7;;;;;;;0.88;94.62402;968.4612;;;;
2020/01/06 18:02:58;;;;;;;24.8;22.3;;;;;;;0.88;94.61133;968.4519;;;;
2020/01/06 18:05:23;;;;;;;23.1;20.8;;;;;;;0.91;94.29297;968.4422;;;;
2020/01/06 18:07:48;;;;;;;23.4;21.1;;;;;;;0.77;94.75586;968.4853;;;;
2020/01/06 18:10:13;;;;;;;166.3;68.6;;;;;;;0.82;94.28223;968.4694;;;;
2020/01/06 18:12:38;;;;;;;47;29.4;;;;;;;0.88;94.17188;968.5283;;;;
2020/01/06 18:15:03;;;;;;;24.9;21.7;;;;;;;0.84;94.46777;968.5335;;;;
2020/01/06 18:17:28;;;;;;;23.3;20.9;;;;;;;0.82;94.22754;968.5291;;;;
2020/01/06 18:19:54;;;;;;;22.3;20.1;;;;;;;0.67;94.78027;968.517;;;;
2020/01/06 18:22:19;;;;;;;22.7;20.4;;;;;;;0.66;95.05762;968.5073;;;;
2020/01/06 18:24:44;;;;;;;24.7;22.1;;;;;;;0.7;95.30176;968.4842;;;;
2020/01/06 18:27:09;;;;;;;24.8;22.1;;;;;;;0.66;95.55273;968.4473;;;;
2020/01/06 18:29:34;;;;;;;25.3;22.6;;;;;;;0.73;95.05078;968.5017;;;;
2020/01/06 18:31:59;;;;;;;25.7;23;;;;;;;0.81;94.74316;968.4579;;;;
2020/01/06 18:34:24;;;;;;;27.6;24.4;;;;;;;0.79;94.47852;968.4018;;;;
2020/01/06 18:36:50;;;;;;;27.5;24.7;;;;;;;0.78;94.80273;968.4083;;;;
2020/01/06 18:39:15;;;;;;;29;25.9;;;;;;;0.64;95.40039;968.4045;;;;
2020/01/06 18:41:40;;;;;;;28.4;25.4;;;;;;;0.66;95.30469;968.3348;;;;
2020/01/06 18:44:05;;;;;;;26.4;23.6;;;;;;;0.74;94.71582;968.3593;;;;
2020/01/06 18:46:30;;;;;;;27.4;24.5;;;;;;;0.74;94.95215;968.3641;;;;
2020/01/06 18:48:55;;;;;;;28.5;25.5;;;;;;;0.8;95.08789;968.3453;;;;
2020/01/06 18:51:20;;;;;;;27.8;24.8;;;;;;;0.78;95.0498;968.4006;;;;
2020/01/06 18:53:45;;;;;;;26.2;23.5;;;;;;;0.87;95.03809;968.3771;;;;
2020/01/06 18:56:10;;;;;;;26.1;23;;;;;;;0.91;95.04688;968.395;;;;
2020/01/06 18:58:36;;;;;;;24.7;22.1;;;;;;;0.95;94.9873;968.313;;;;
2020/01/06 19:01:01;;;;;;;25.8;23.1;;;;;;;0.89;95.91992;968.3289;;;;
2020/01/06 19:03:26;;;;;;;26.4;23.7;;;;;;;0.68;97.09766;968.2927;;;;
2020/01/06 19:05:57;;;;;;;26.1;23.4;;;;;;;0.87;96.48828;968.2453;;;;
2020/01/06 19:08:16;;;;;;;24.8;22.1;;;;;;;0.98;95.88184;968.2365;;;;
2020/01/06 19:10:42;;;;;;;24.6;22;;;;;;;0.92;96.06152;968.2807;;;;
2020/01/06 19:13:07;;;;;;;24.6;22;;;;;;;0.82;96.90332;968.3411;;;;
2020/01/06 19:15:32;;;;;;;25.8;23.2;;;;;;;0.82;96.78125;968.2907;;;;
2020/01/06 19:17:57;;;;;;;25.9;23.1;;;;;;;0.83;97.1748;968.291;;;;
2020/01/06 19:20:22;;;;;;;30.4;27.1;;;;;;;0.93;96.54688;968.2415;;;;
2020/01/06 19:22:47;;;;;;;30.8;27.6;;;;;;;0.91;96.2168;968.2304;;;;
2020/01/06 19:25:15;;;;;;;28;25.1;;;;;;;0.86;96.64355;968.2797;;;;
2020/01/06 19:27:38;;;;;;;31.2;27.8;;;;;;;0.78;97.00781;968.2112;;;;
2020/01/06 19:30:03;;;;;;;30.1;26.2;;;;;;;0.84;96.79688;968.2136;;;;
2020/01/06 19:32:28;;;;;;;32.3;28;;;;;;;1;96.20313;968.2142;;;;
2020/01/06 19:34:53;;;;;;;38;32.5;;;;;;;1.03;95.55664;968.176;;;;
2020/01/06 19:37:18;;;;;;;41.9;34.6;;;;;;;0.93;95.75977;968.1619;;;;
2020/01/06 19:39:43;;;;;;;39.8;33.8;;;;;;;0.87;96.02637;968.2103;;;;
2020/01/06 19:42:08;;;;;;;32.2;28.8;;;;;;;0.82;96.8916;968.2487;;;;
2020/01/06 19:44:34;;;;;;;29.5;26.4;;;;;;;0.94;96.58496;968.1902;;;;
2020/01/06 19:46:59;;;;;;;29;25.7;;;;;;;0.94;96.17969;968.2325;;;;
2020/01/06 19:49:24;;;;;;;29.3;26.1;;;;;;;0.94;95.80664;968.2178;;;;
2020/01/06 19:51:49;;;;;;;29.8;25.5;;;;;;;1;95.29199;968.2136;;;;
2020/01/06 19:54:29;;;;;;;26.3;23.6;;;;;;;0.98;95.09668;968.1998;;;;
2020/01/06 19:56:59;;;;;;;27.2;24.3;;;;;;;0.91;94.78809;968.2647;;;;
2020/01/06 19:59:28;;;;;;;30.2;26.6;;;;;;;0.81;95.14844;968.31;;;;
2020/01/06 20:01:51;;;;;;;28.4;25.5;;;;;;;0.79;94.87402;968.2712;;;;
2020/01/06 20:04:25;;;;;;;31.1;27.8;;;;;;;0.71;94.95703;968.2667;;;;
2020/01/06 20:06:45;;;;;;;31.6;28.2;;;;;;;0.71;95;968.2512;;;;
2020/01/06 20:09:13;;;;;;;33.3;29.7;;;;;;;0.68;95.14063;968.2879;;;;
2020/01/06 20:11:42;;;;;;;34.7;31.1;;;;;;;0.65;95.62891;968.3147;;;;
2020/01/06 20:14:22;;;;;;;36.2;32.1;;;;;;;0.6;95.37207;968.3212;;;;
2020/01/06 20:16:57;;;;;;;36;32.3;;;;;;;0.59;95.27734;968.3491;;;;
2020/01/06 20:19:25;;;;;;;33.2;29.8;;;;;;;0.63;94.80176;968.2946;;;;
2020/01/06 20:22:15;;;;;;;33.5;29.9;;;;;;;0.65;94.86426;968.3066;;;;
2020/01/06 20:24:41;;;;;;;33.2;29.7;;;;;;;0.6;95.09082;968.2304;;;;
2020/01/06 20:27:16;;;;;;;31.6;28.3;;;;;;;0.64;94.61523;968.2566;;;;
2020/01/06 20:29:36;;;;;;;33.6;29;;;;;;;0.44;94.98633;968.2863;;;;
2020/01/06 20:32:07;;;;;;;31.6;28.3;;;;;;;0.45;95.17969;968.2798;;;;
2020/01/06 20:34:34;;;;;;;31.7;28.3;;;;;;;0.39;95.55957;968.217;;;;
2020/01/06 20:39:32;;;;;;;31.8;28;;;;;;;0.4;95.42578;968.2559;;;;
2020/01/06 20:41:56;;;;;;;30.2;27;;;;;;;0.37;95.63379;968.2434;;;;
2020/01/06 20:44:40;;;;;;;30.8;27.4;;;;;;;0.39;95.6377;968.3055;;;;
2020/01/06 20:47:09;;;;;;;30.9;27.6;;;;;;;0.38;95.52148;968.2639;;;;
2020/01/06 20:49:46;;;;;;;30.4;27.1;;;;;;;0.33;95.35352;968.3153;;;;
2020/01/06 20:52:21;;;;;;;31.9;28.5;;;;;;;0.35;95.58301;968.2797;;;;
2020/01/06 20:54:54;;;;;;;31;27.6;;;;;;;0.37;95.33008;968.2245;;;;
2020/01/06 20:59:37;;;;;;;30.2;27.1;;;;;;;0.35;95.56055;968.2166;;;;
2020/01/06 21:02:10;;;;;;;29.5;26.4;;;;;;;0.35;95.44824;968.1578;;;;
2020/01/06 21:04:51;;;;;;;31;27.7;;;;;;;0.41;95.37207;968.2094;;;;
2020/01/06 21:07:26;;;;;;;30.6;27.5;;;;;;;0.34;95.57129;968.1511;;;;
2020/01/06 21:10:07;;;;;;;31.6;28.3;;;;;;;0.28;95.75781;968.1223;;;;
2020/01/06 21:13:11;;;;;;;32.7;29.1;;;;;;;0.41;95.26855;968.1539;;;;
2020/01/06 21:15:15;;;;;;;33.8;30.2;;;;;;;0.27;96.02539;968.1311;;;;
2020/01/06 21:17:44;;;;;;;34.7;31;;;;;;;0.26;96.39551;968.173;;;;
2020/01/06 21:20:12;;;;;;;35.1;31.1;;;;;;;0.31;95.94531;968.1422;;;;
2020/01/06 21:22:44;;;;;;;34.4;30;;;;;;;0.31;95.72949;968.0995;;;;
2020/01/06 21:25:11;;;;;;;35.6;31.8;;;;;;;0.2;95.99707;968.1094;;;;
2020/01/06 21:27:42;;;;;;;35.6;31.7;;;;;;;0.26;96.05859;968.1403;;;;
2020/01/06 21:30:14;;;;;;;38.2;33.1;;;;;;;0.23;96.1875;968.067;;;;
2020/01/06 21:35:17;;;;;;;40.3;35.7;;;;;;;0.2;96.22266;968.034;;;;
2020/01/06 21:40:12;;;;;;;40.1;33.8;;;;;;;0.3;96.10938;967.9977;;;;
2020/01/06 21:42:43;;;;;;;38.7;33.3;;;;;;;0.3;96.45801;967.9713;;;;
2020/01/06 21:45:12;;;;;;;35.7;31.5;;;;;;;0.22;96.71094;967.9564;;;;
2020/01/06 21:47:55;;;;;;;35.1;30.8;;;;;;;0.25;96.62793;967.9554;;;;
2020/01/06 21:50:13;;;;;;;32.5;28.4;;;;;;;0.35;96.13281;967.9558;;;;
2020/01/06 21:52:43;;;;;;;32.7;28.3;;;;;;;0.42;95.74707;967.8906;;;;
2020/01/06 21:55:19;;;;;;;32.7;29.1;;;;;;;0.32;96.02637;967.8485;;;;
2020/01/06 21:57:53;;;;;;;31.1;27.7;;;;;;;0.34;96.13086;967.8549;;;;
2020/01/06 22:00:13;;;;;;;31.6;28;;;;;;;0.33;95.79199;967.8215;;;;
2020/01/06 22:02:44;;;;;;;33;29;;;;;;;0.23;96.29785;967.7662;;;;
2020/01/06 22:05:15;;;;;;;32.3;28.8;;;;;;;0.17;96.13965;967.7228;;;;
2020/01/06 22:07:44;;;;;;;31.6;27.6;;;;;;;0.2;96.14355;967.6997;;;;
2020/01/06 22:10:24;;;;;;;29.7;26.5;;;;;;;0.26;95.91309;967.6778;;;;
2020/01/06 22:12:52;;;;;;;31.8;26.7;;;;;;;0.26;95.54004;967.6079;;;;
2020/01/06 22:15:23;;;;;;;30.2;25.9;;;;;;;0.3;95.5498;967.4927;;;;
2020/01/06 22:17:51;;;;;;;29;25.7;;;;;;;0.26;95.39551;967.4886;;;;
2020/01/06 22:20:23;;;;;;;30;26.6;;;;;;;0.25;95.33398;967.5823;;;;
2020/01/06 22:23:03;;;;;;;29.5;26.3;;;;;;;0.24;95.56934;967.5461;;;;
2020/01/06 22:25:30;;;;;;;30.7;26.8;;;;;;;0.22;95.6875;967.5787;;;;
2020/01/06 22:28:01;;;;;;;30;26.2;;;;;;;0.22;95.67578;967.5891;;;;
2020/01/06 22:30:27;;;;;;;29.7;25.5;;;;;;;0.22;95.55176;967.5195;;;;
2020/01/06 22:32:55;;;;;;;28.9;24.9;;;;;;;0.24;95.51367;967.5054;;;;
2020/01/06 22:35:30;;;;;;;30.7;26.7;;;;;;;0.18;95.75977;967.5112;;;;
2020/01/06 22:38:12;;;;;;;29;25.8;;;;;;;0.25;95.68359;967.4954;;;;
2020/01/06 22:40:39;;;;;;;28.8;25.4;;;;;;;0.26;95.41602;967.4498;;;;
2020/01/06 22:43:14;;;;;;;30.4;27.1;;;;;;;0.26;95.29297;967.4467;;;;
2020/01/06 22:45:39;;;;;;;29.8;26.6;;;;;;;0.27;95.0498;967.4568;;;;
2020/01/06 22:48:03;;;;;;;30.2;26.9;;;;;;;0.23;94.92676;967.3253;;;;
2020/01/06 22:50:32;;;;;;;31.4;27.4;;;;;;;0.15;95.3584;967.337;;;;
2020/01/06 22:53:08;;;;;;;31.7;28.3;;;;;;;0.13;95.4668;967.4355;;;;
2020/01/06 22:55:37;;;;;;;33.1;29.1;;;;;;;0;96.2666;967.3552;;;;
2020/01/06 22:58:02;;;;;;;31.8;27.5;;;;;;;-0.05;96.64941;967.3575;;;;
2020/01/06 23:02:02;;;;;;;31;27.6;;;;;;;-0.08;96.42578;967.2589;;;;
2020/01/06 23:04:27;;;;;;;32.7;28.3;;;;;;;0.01;96.30273;967.188;;;;
2020/01/06 23:06:52;;;;;;;29.5;26.4;;;;;;;0.05;95.58301;967.2084;;;;
2020/01/06 23:09:26;;;;;;;30.6;27.3;;;;;;;0.01;95.42676;967.2065;;;;
2020/01/06 23:11:52;;;;;;;30.3;27;;;;;;;0.01;95.79785;967.2136;;;;
2020/01/06 23:14:08;;;;;;;32.3;27.7;;;;;;;-0.17;96.34082;967.1831;;;;
2020/01/06 23:16:33;;;;;;;31;27.7;;;;;;;-0.16;96.82715;967.1697;;;;
2020/01/06 23:18:58;;;;;;;29.1;25.9;;;;;;;-0.12;96.16211;967.1177;;;;
2020/01/06 23:21:23;;;;;;;28.9;25.9;;;;;;;0;95.9209;967.113;;;;
2020/01/06 23:23:48;;;;;;;28.8;25.7;;;;;;;0.03;95.42188;967.0931;;;;
2020/01/06 23:26:13;;;;;;;31.7;28.3;;;;;;;0.02;95.56543;967.0959;;;;
2020/01/06 23:28:38;;;;;;;31.7;28.3;;;;;;;-0.15;96.17871;967.0463;;;;
2020/01/06 23:31:03;;;;;;;32.3;28.6;;;;;;;-0.13;95.87891;967.0633;;;;
2020/01/06 23:33:28;;;;;;;30;26.9;;;;;;;-0.09;95.73047;967.074;;;;
2020/01/06 23:35:53;;;;;;;31.7;28.1;;;;;;;-0.07;95.52148;967.1083;;;;
2020/01/06 23:38:18;;;;;;;28.8;25.6;;;;;;;-0.05;95.3457;967.1884;;;;
2020/01/06 23:40:44;;;;;;;32.3;28.6;;;;;;;-0.18;95.99219;967.2213;;;;
2020/01/06 23:43:09;;;;;;;32.4;28.2;;;;;;;-0.16;95.96289;967.212;;;;
2020/01/06 23:45:34;;;;;;;31.2;27.8;;;;;;;-0.19;95.83105;967.1642;;;;
2020/01/06 23:47:59;;;;;;;31.9;28.2;;;;;;;-0.12;95.83594;967.1792;;;;
2020/01/06 23:50:24;;;;;;;31.9;28.3;;;;;;;-0.17;95.96973;967.1841;;;;
2020/01/06 23:52:49;;;;;;;31.6;28.2;;;;;;;-0.15;96.24512;967.1792;;;;
2020/01/06 23:55:14;;;;;;;31.6;28.2;;;;;;;-0.19;96.08984;967.1665;;;;
2020/01/06 23:57:49;;;;;;;34.4;30.2;;;;;;;-0.16;95.92969;967.1456;;;;
